sensor_id;sensor_type;location;lat;lon;timestamp;P1;durP1;ratioP1;P2;durP2;ratioP2
4616;SDS011;2321;42.704;23.384;2022-08-01T00:02:18;3.23;;;3.03;;
4616;SDS011;2321;42.704;23.384;2022-08-01T00:04:45;3.80;;;3.50;;
4616;SDS011;2321;42.704;23.384;2022-08-01T00:07:12;3.27;;;3.00;;
4616;SDS011;2321;42.704;23.384;2022-08-01T00:09:41;3.30;;;3.10;;
4616;SDS011;2321;42.704;23.384;2022-08-01T00:12:08;3.00;;;2.83;;
4616;SDS011;2321;42.704;23.384;2022-08-01T00:14:36;3.73;;;3.43;;
4616;SDS011;2321;42.704;23.384;2022-08-01T00:17:03;11.13;;;4.07;;
4616;SDS011;2321;42.704;23.384;2022-08-01T00:19:30;3.27;;;3.00;;
4616;SDS011;2321;42.704;23.384;2022-08-01T00:21:57;3.70;;;2.90;;
4616;SDS011;2321;42.704;23.384;2022-08-01T00:24:24;3.60;;;3.30;;
4616;SDS011;2321;42.704;23.384;2022-08-01T00:26:53;4.67;;;3.27;;
4616;SDS011;2321;42.704;23.384;2022-08-01T00:29:20;10.27;;;3.70;;
4616;SDS011;2321;42.704;23.384;2022-08-01T00:31:47;2.43;;;2.33;;
4616;SDS011;2321;42.704;23.384;2022-08-01T00:34:14;3.50;;;3.17;;
4616;SDS011;2321;42.704;23.384;2022-08-01T00:36:41;4.47;;;4.07;;
4616;SDS011;2321;42.704;23.384;2022-08-01T00:39:08;16.43;;;3.77;;
4616;SDS011;2321;42.704;23.384;2022-08-01T00:41:35;3.60;;;3.40;;
4616;SDS011;2321;42.704;23.384;2022-08-01T00:44:04;3.33;;;3.10;;
4616;SDS011;2321;42.704;23.384;2022-08-01T00:46:32;3.73;;;3.43;;
4616;SDS011;2321;42.704;23.384;2022-08-01T00:48:59;3.53;;;3.30;;
4616;SDS011;2321;42.704;23.384;2022-08-01T00:51:26;4.20;;;3.57;;
4616;SDS011;2321;42.704;23.384;2022-08-01T00:53:53;6.17;;;3.67;;
4616;SDS011;2321;42.704;23.384;2022-08-01T00:56:22;3.53;;;3.33;;
4616;SDS011;2321;42.704;23.384;2022-08-01T00:58:51;4.70;;;4.00;;
4616;SDS011;2321;42.704;23.384;2022-08-01T01:01:20;3.50;;;3.30;;
4616;SDS011;2321;42.704;23.384;2022-08-01T01:03:47;8.80;;;4.00;;
4616;SDS011;2321;42.704;23.384;2022-08-01T01:06:19;3.10;;;2.90;;
4616;SDS011;2321;42.704;23.384;2022-08-01T01:08:55;2.30;;;2.20;;
4616;SDS011;2321;42.704;23.384;2022-08-01T01:11:30;3.33;;;3.10;;
4616;SDS011;2321;42.704;23.384;2022-08-01T01:14:04;3.20;;;2.73;;
4616;SDS011;2321;42.704;23.384;2022-08-01T01:16:37;3.53;;;3.07;;
4616;SDS011;2321;42.704;23.384;2022-08-01T01:19:08;2.60;;;2.50;;
4616;SDS011;2321;42.704;23.384;2022-08-01T01:21:57;2.57;;;2.47;;
4616;SDS011;2321;42.704;23.384;2022-08-01T01:24:37;2.50;;;2.40;;
4616;SDS011;2321;42.704;23.384;2022-08-01T01:27:15;2.60;;;2.40;;
4616;SDS011;2321;42.704;23.384;2022-08-01T01:29:52;2.20;;;2.00;;
4616;SDS011;2321;42.704;23.384;2022-08-01T01:32:22;2.33;;;2.23;;
4616;SDS011;2321;42.704;23.384;2022-08-01T01:34:58;3.63;;;2.83;;
4616;SDS011;2321;42.704;23.384;2022-08-01T01:37:26;2.33;;;2.23;;
4616;SDS011;2321;42.704;23.384;2022-08-01T01:39:56;5.53;;;2.03;;
4616;SDS011;2321;42.704;23.384;2022-08-01T01:42:24;2.57;;;2.47;;
4616;SDS011;2321;42.704;23.384;2022-08-01T01:44:54;3.23;;;2.93;;
4616;SDS011;2321;42.704;23.384;2022-08-01T01:47:22;2.87;;;2.30;;
4616;SDS011;2321;42.704;23.384;2022-08-01T01:49:51;2.80;;;2.60;;
4616;SDS011;2321;42.704;23.384;2022-08-01T01:52:21;2.90;;;2.70;;
4616;SDS011;2321;42.704;23.384;2022-08-01T01:54:50;2.37;;;2.27;;
4616;SDS011;2321;42.704;23.384;2022-08-01T01:57:19;2.77;;;2.63;;
4616;SDS011;2321;42.704;23.384;2022-08-01T01:59:48;2.47;;;2.37;;
4616;SDS011;2321;42.704;23.384;2022-08-01T02:02:19;2.57;;;2.37;;
4616;SDS011;2321;42.704;23.384;2022-08-01T02:04:50;2.37;;;2.27;;
4616;SDS011;2321;42.704;23.384;2022-08-01T02:07:19;2.60;;;2.40;;
4616;SDS011;2321;42.704;23.384;2022-08-01T02:09:48;2.77;;;2.57;;
4616;SDS011;2321;42.704;23.384;2022-08-01T02:12:17;3.13;;;2.87;;
4616;SDS011;2321;42.704;23.384;2022-08-01T02:14:47;3.73;;;3.43;;
4616;SDS011;2321;42.704;23.384;2022-08-01T02:17:17;2.97;;;2.43;;
4616;SDS011;2321;42.704;23.384;2022-08-01T02:19:47;2.60;;;2.50;;
4616;SDS011;2321;42.704;23.384;2022-08-01T02:22:16;5.53;;;2.77;;
4616;SDS011;2321;42.704;23.384;2022-08-01T02:24:50;2.70;;;2.60;;
4616;SDS011;2321;42.704;23.384;2022-08-01T02:27:27;4.17;;;3.40;;
4616;SDS011;2321;42.704;23.384;2022-08-01T02:30:01;4.40;;;2.87;;
4616;SDS011;2321;42.704;23.384;2022-08-01T02:32:34;3.80;;;2.73;;
4616;SDS011;2321;42.704;23.384;2022-08-01T02:35:05;2.70;;;2.60;;
4616;SDS011;2321;42.704;23.384;2022-08-01T02:37:36;3.13;;;2.90;;
4616;SDS011;2321;42.704;23.384;2022-08-01T02:40:05;3.20;;;3.00;;
4616;SDS011;2321;42.704;23.384;2022-08-01T02:42:34;2.47;;;2.37;;
4616;SDS011;2321;42.704;23.384;2022-08-01T02:45:04;3.00;;;2.70;;
4616;SDS011;2321;42.704;23.384;2022-08-01T02:47:35;2.40;;;2.30;;
4616;SDS011;2321;42.704;23.384;2022-08-01T02:50:04;2.13;;;2.03;;
4616;SDS011;2321;42.704;23.384;2022-08-01T02:52:33;2.60;;;2.50;;
4616;SDS011;2321;42.704;23.384;2022-08-01T02:55:02;4.43;;;3.30;;
4616;SDS011;2321;42.704;23.384;2022-08-01T02:57:31;3.10;;;2.87;;
4616;SDS011;2321;42.704;23.384;2022-08-01T03:00:00;3.23;;;3.00;;
4616;SDS011;2321;42.704;23.384;2022-08-01T03:02:27;3.00;;;2.70;;
4616;SDS011;2321;42.704;23.384;2022-08-01T03:04:58;3.27;;;3.07;;
4616;SDS011;2321;42.704;23.384;2022-08-01T03:07:25;2.73;;;2.53;;
4616;SDS011;2321;42.704;23.384;2022-08-01T03:09:55;4.93;;;3.07;;
4616;SDS011;2321;42.704;23.384;2022-08-01T03:12:24;5.60;;;3.20;;
4616;SDS011;2321;42.704;23.384;2022-08-01T03:14:54;2.13;;;2.03;;
4616;SDS011;2321;42.704;23.384;2022-08-01T03:17:24;2.70;;;2.60;;
4616;SDS011;2321;42.704;23.384;2022-08-01T03:19:53;2.90;;;2.70;;
4616;SDS011;2321;42.704;23.384;2022-08-01T03:22:24;4.07;;;3.20;;
4616;SDS011;2321;42.704;23.384;2022-08-01T03:24:53;3.70;;;2.40;;
4616;SDS011;2321;42.704;23.384;2022-08-01T03:27:23;2.57;;;2.47;;
4616;SDS011;2321;42.704;23.384;2022-08-01T03:29:52;2.67;;;2.47;;
4616;SDS011;2321;42.704;23.384;2022-08-01T03:32:22;2.90;;;2.60;;
4616;SDS011;2321;42.704;23.384;2022-08-01T03:34:50;2.67;;;2.50;;
4616;SDS011;2321;42.704;23.384;2022-08-01T03:37:18;2.90;;;2.80;;
4616;SDS011;2321;42.704;23.384;2022-08-01T03:39:52;3.00;;;2.70;;
4616;SDS011;2321;42.704;23.384;2022-08-01T03:42:23;5.00;;;3.67;;
4616;SDS011;2321;42.704;23.384;2022-08-01T03:44:57;2.83;;;2.63;;
4616;SDS011;2321;42.704;23.384;2022-08-01T03:47:29;3.90;;;3.60;;
4616;SDS011;2321;42.704;23.384;2022-08-01T03:49:58;3.47;;;3.27;;
4616;SDS011;2321;42.704;23.384;2022-08-01T03:52:28;4.70;;;4.30;;
4616;SDS011;2321;42.704;23.384;2022-08-01T03:54:58;5.20;;;4.00;;
4616;SDS011;2321;42.704;23.384;2022-08-01T03:57:27;4.73;;;4.33;;
4616;SDS011;2321;42.704;23.384;2022-08-01T03:59:56;2.90;;;2.57;;
4616;SDS011;2321;42.704;23.384;2022-08-01T04:02:24;5.50;;;2.97;;
4616;SDS011;2321;42.704;23.384;2022-08-01T04:04:51;1.90;;;1.80;;
4616;SDS011;2321;42.704;23.384;2022-08-01T04:07:22;4.37;;;3.37;;
4616;SDS011;2321;42.704;23.384;2022-08-01T04:09:50;3.20;;;3.00;;
4616;SDS011;2321;42.704;23.384;2022-08-01T04:12:19;2.80;;;2.60;;
4616;SDS011;2321;42.704;23.384;2022-08-01T04:14:46;2.77;;;2.57;;
4616;SDS011;2321;42.704;23.384;2022-08-01T04:17:13;3.10;;;2.90;;
4616;SDS011;2321;42.704;23.384;2022-08-01T04:19:40;3.23;;;2.50;;
4616;SDS011;2321;42.704;23.384;2022-08-01T04:22:08;3.87;;;3.03;;
4616;SDS011;2321;42.704;23.384;2022-08-01T04:24:36;5.97;;;4.13;;
4616;SDS011;2321;42.704;23.384;2022-08-01T04:27:06;6.10;;;5.40;;
4616;SDS011;2321;42.704;23.384;2022-08-01T04:29:39;5.57;;;4.93;;
4616;SDS011;2321;42.704;23.384;2022-08-01T04:32:10;5.40;;;4.27;;
4616;SDS011;2321;42.704;23.384;2022-08-01T04:34:39;12.03;;;4.30;;
4616;SDS011;2321;42.704;23.384;2022-08-01T04:37:09;5.23;;;4.73;;
4616;SDS011;2321;42.704;23.384;2022-08-01T04:39:37;5.00;;;3.87;;
4616;SDS011;2321;42.704;23.384;2022-08-01T04:42:08;3.90;;;3.60;;
4616;SDS011;2321;42.704;23.384;2022-08-01T04:44:36;9.37;;;3.70;;
4616;SDS011;2321;42.704;23.384;2022-08-01T04:47:05;4.23;;;3.50;;
4616;SDS011;2321;42.704;23.384;2022-08-01T04:49:33;3.03;;;2.83;;
4616;SDS011;2321;42.704;23.384;2022-08-01T04:52:00;6.30;;;2.87;;
4616;SDS011;2321;42.704;23.384;2022-08-01T04:54:27;3.47;;;3.30;;
4616;SDS011;2321;42.704;23.384;2022-08-01T04:56:55;5.03;;;4.57;;
4616;SDS011;2321;42.704;23.384;2022-08-01T04:59:25;9.90;;;3.70;;
4616;SDS011;2321;42.704;23.384;2022-08-01T05:02:09;5.67;;;3.77;;
4616;SDS011;2321;42.704;23.384;2022-08-01T05:04:37;11.77;;;4.93;;
4616;SDS011;2321;42.704;23.384;2022-08-01T05:07:06;9.90;;;4.10;;
4616;SDS011;2321;42.704;23.384;2022-08-01T05:09:34;5.30;;;3.97;;
4616;SDS011;2321;42.704;23.384;2022-08-01T05:12:02;4.07;;;3.77;;
4616;SDS011;2321;42.704;23.384;2022-08-01T05:14:31;4.77;;;4.27;;
4616;SDS011;2321;42.704;23.384;2022-08-01T05:16:59;12.33;;;3.77;;
4616;SDS011;2321;42.704;23.384;2022-08-01T05:19:30;9.47;;;3.40;;
4616;SDS011;2321;42.704;23.384;2022-08-01T05:21:58;10.30;;;3.40;;
4616;SDS011;2321;42.704;23.384;2022-08-01T05:24:25;2.33;;;2.20;;
4616;SDS011;2321;42.704;23.384;2022-08-01T05:26:53;9.17;;;2.97;;
4616;SDS011;2321;42.704;23.384;2022-08-01T05:29:20;3.63;;;3.30;;
4616;SDS011;2321;42.704;23.384;2022-08-01T05:31:47;3.60;;;3.03;;
4616;SDS011;2321;42.704;23.384;2022-08-01T05:34:14;5.97;;;3.63;;
4616;SDS011;2321;42.704;23.384;2022-08-01T05:36:43;6.80;;;2.70;;
4616;SDS011;2321;42.704;23.384;2022-08-01T05:39:10;4.20;;;2.77;;
4616;SDS011;2321;42.704;23.384;2022-08-01T05:41:38;2.40;;;2.30;;
4616;SDS011;2321;42.704;23.384;2022-08-01T05:44:05;2.80;;;2.67;;
4616;SDS011;2321;42.704;23.384;2022-08-01T05:46:32;2.00;;;1.97;;
4616;SDS011;2321;42.704;23.384;2022-08-01T05:49:00;1.93;;;1.83;;
4616;SDS011;2321;42.704;23.384;2022-08-01T05:51:28;1.80;;;1.70;;
4616;SDS011;2321;42.704;23.384;2022-08-01T05:53:57;2.00;;;1.90;;
4616;SDS011;2321;42.704;23.384;2022-08-01T05:56:24;1.80;;;1.70;;
4616;SDS011;2321;42.704;23.384;2022-08-01T05:58:51;2.80;;;2.63;;
4616;SDS011;2321;42.704;23.384;2022-08-01T06:01:18;3.00;;;2.80;;
4616;SDS011;2321;42.704;23.384;2022-08-01T06:03:46;2.57;;;2.37;;
4616;SDS011;2321;42.704;23.384;2022-08-01T06:06:13;1.70;;;1.63;;
4616;SDS011;2321;42.704;23.384;2022-08-01T06:08:40;2.57;;;2.43;;
4616;SDS011;2321;42.704;23.384;2022-08-01T06:11:08;1.60;;;1.60;;
4616;SDS011;2321;42.704;23.384;2022-08-01T06:13:35;2.50;;;2.40;;
4616;SDS011;2321;42.704;23.384;2022-08-01T06:16:02;1.83;;;1.73;;
4616;SDS011;2321;42.704;23.384;2022-08-01T06:18:30;2.30;;;2.20;;
4616;SDS011;2321;42.704;23.384;2022-08-01T06:20:57;3.77;;;2.17;;
4616;SDS011;2321;42.704;23.384;2022-08-01T06:23:24;5.30;;;2.40;;
4616;SDS011;2321;42.704;23.384;2022-08-01T06:25:51;2.20;;;1.70;;
4616;SDS011;2321;42.704;23.384;2022-08-01T06:28:21;2.00;;;1.90;;
4616;SDS011;2321;42.704;23.384;2022-08-01T06:30:48;2.03;;;1.93;;
4616;SDS011;2321;42.704;23.384;2022-08-01T06:33:15;2.10;;;2.00;;
4616;SDS011;2321;42.704;23.384;2022-08-01T06:35:42;2.10;;;1.90;;
4616;SDS011;2321;42.704;23.384;2022-08-01T06:38:09;2.03;;;1.93;;
4616;SDS011;2321;42.704;23.384;2022-08-01T06:40:36;2.60;;;2.40;;
4616;SDS011;2321;42.704;23.384;2022-08-01T06:43:03;2.00;;;1.90;;
4616;SDS011;2321;42.704;23.384;2022-08-01T06:45:31;4.73;;;2.17;;
4616;SDS011;2321;42.704;23.384;2022-08-01T06:47:58;2.20;;;2.10;;
4616;SDS011;2321;42.704;23.384;2022-08-01T06:50:25;2.00;;;1.90;;
4616;SDS011;2321;42.704;23.384;2022-08-01T06:52:52;2.47;;;2.27;;
4616;SDS011;2321;42.704;23.384;2022-08-01T06:55:19;2.27;;;1.93;;
4616;SDS011;2321;42.704;23.384;2022-08-01T06:57:47;1.80;;;1.70;;
4616;SDS011;2321;42.704;23.384;2022-08-01T07:00:15;1.50;;;1.47;;
4616;SDS011;2321;42.704;23.384;2022-08-01T07:02:45;1.60;;;1.50;;
4616;SDS011;2321;42.704;23.384;2022-08-01T07:05:12;2.00;;;1.90;;
4616;SDS011;2321;42.704;23.384;2022-08-01T07:07:39;1.40;;;1.40;;
4616;SDS011;2321;42.704;23.384;2022-08-01T07:10:07;2.60;;;2.33;;
4616;SDS011;2321;42.704;23.384;2022-08-01T07:12:34;3.77;;;2.00;;
4616;SDS011;2321;42.704;23.384;2022-08-01T07:15:03;1.47;;;1.47;;
4616;SDS011;2321;42.704;23.384;2022-08-01T07:17:31;2.37;;;2.17;;
4616;SDS011;2321;42.704;23.384;2022-08-01T07:19:59;3.43;;;3.10;;
4616;SDS011;2321;42.704;23.384;2022-08-01T07:22:27;2.20;;;1.43;;
4616;SDS011;2321;42.704;23.384;2022-08-01T07:24:54;7.80;;;1.93;;
4616;SDS011;2321;42.704;23.384;2022-08-01T07:27:21;1.20;;;1.20;;
4616;SDS011;2321;42.704;23.384;2022-08-01T07:29:48;1.27;;;1.27;;
4616;SDS011;2321;42.704;23.384;2022-08-01T07:32:15;1.80;;;1.70;;
4616;SDS011;2321;42.704;23.384;2022-08-01T07:34:42;2.30;;;2.17;;
4616;SDS011;2321;42.704;23.384;2022-08-01T07:37:11;4.57;;;2.20;;
4616;SDS011;2321;42.704;23.384;2022-08-01T07:39:38;2.90;;;2.20;;
4616;SDS011;2321;42.704;23.384;2022-08-01T07:42:05;2.77;;;2.40;;
4616;SDS011;2321;42.704;23.384;2022-08-01T07:44:32;1.90;;;1.57;;
4616;SDS011;2321;42.704;23.384;2022-08-01T07:46:59;2.17;;;2.07;;
4616;SDS011;2321;42.704;23.384;2022-08-01T07:49:26;2.20;;;2.10;;
4616;SDS011;2321;42.704;23.384;2022-08-01T07:51:53;1.70;;;1.70;;
4616;SDS011;2321;42.704;23.384;2022-08-01T07:54:21;2.20;;;2.10;;
4616;SDS011;2321;42.704;23.384;2022-08-01T07:56:49;1.57;;;1.57;;
4616;SDS011;2321;42.704;23.384;2022-08-01T07:59:16;5.60;;;2.07;;
4616;SDS011;2321;42.704;23.384;2022-08-01T08:01:47;1.80;;;1.70;;
4616;SDS011;2321;42.704;23.384;2022-08-01T08:04:15;1.97;;;1.87;;
4616;SDS011;2321;42.704;23.384;2022-08-01T08:06:41;3.70;;;2.30;;
4616;SDS011;2321;42.704;23.384;2022-08-01T08:09:09;1.83;;;1.73;;
4616;SDS011;2321;42.704;23.384;2022-08-01T08:11:38;1.77;;;1.77;;
4616;SDS011;2321;42.704;23.384;2022-08-01T08:14:05;1.90;;;1.80;;
4616;SDS011;2321;42.704;23.384;2022-08-01T08:16:32;1.80;;;1.80;;
4616;SDS011;2321;42.704;23.384;2022-08-01T08:18:59;5.70;;;3.03;;
4616;SDS011;2321;42.704;23.384;2022-08-01T08:21:26;2.83;;;2.43;;
4616;SDS011;2321;42.704;23.384;2022-08-01T08:23:55;1.63;;;1.53;;
4616;SDS011;2321;42.704;23.384;2022-08-01T08:26:40;1.70;;;1.60;;
4616;SDS011;2321;42.704;23.384;2022-08-01T08:29:07;1.23;;;1.23;;
4616;SDS011;2321;42.704;23.384;2022-08-01T08:31:34;1.93;;;1.83;;
4616;SDS011;2321;42.704;23.384;2022-08-01T08:34:01;2.10;;;1.77;;
4616;SDS011;2321;42.704;23.384;2022-08-01T08:36:28;1.90;;;1.80;;
4616;SDS011;2321;42.704;23.384;2022-08-01T08:38:55;2.50;;;1.60;;
4616;SDS011;2321;42.704;23.384;2022-08-01T08:41:22;1.97;;;1.90;;
4616;SDS011;2321;42.704;23.384;2022-08-01T08:43:50;1.80;;;1.70;;
4616;SDS011;2321;42.704;23.384;2022-08-01T08:46:18;3.73;;;1.60;;
4616;SDS011;2321;42.704;23.384;2022-08-01T08:48:46;2.10;;;2.00;;
4616;SDS011;2321;42.704;23.384;2022-08-01T08:51:14;2.30;;;2.20;;
4616;SDS011;2321;42.704;23.384;2022-08-01T08:53:44;2.07;;;1.97;;
4616;SDS011;2321;42.704;23.384;2022-08-01T08:56:13;1.77;;;1.77;;
4616;SDS011;2321;42.704;23.384;2022-08-01T08:58:40;1.50;;;1.50;;
4616;SDS011;2321;42.704;23.384;2022-08-01T09:01:12;1.60;;;1.60;;
4616;SDS011;2321;42.704;23.384;2022-08-01T09:03:39;2.17;;;2.07;;
4616;SDS011;2321;42.704;23.384;2022-08-01T09:06:06;8.53;;;1.30;;
4616;SDS011;2321;42.704;23.384;2022-08-01T09:08:33;3.33;;;1.43;;
4616;SDS011;2321;42.704;23.384;2022-08-01T09:11:00;4.33;;;1.80;;
4616;SDS011;2321;42.704;23.384;2022-08-01T09:13:28;1.93;;;1.80;;
4616;SDS011;2321;42.704;23.384;2022-08-01T09:15:55;1.40;;;1.40;;
4616;SDS011;2321;42.704;23.384;2022-08-01T09:18:29;1.63;;;1.63;;
4616;SDS011;2321;42.704;23.384;2022-08-01T09:21:14;2.30;;;2.20;;
4616;SDS011;2321;42.704;23.384;2022-08-01T09:23:43;4.00;;;1.50;;
4616;SDS011;2321;42.704;23.384;2022-08-01T09:26:12;1.60;;;1.50;;
4616;SDS011;2321;42.704;23.384;2022-08-01T09:28:41;1.57;;;1.50;;
4616;SDS011;2321;42.704;23.384;2022-08-01T09:31:09;2.07;;;1.97;;
4616;SDS011;2321;42.704;23.384;2022-08-01T09:33:48;1.90;;;1.80;;
4616;SDS011;2321;42.704;23.384;2022-08-01T09:36:16;1.70;;;1.70;;
4616;SDS011;2321;42.704;23.384;2022-08-01T09:38:43;1.40;;;1.40;;
4616;SDS011;2321;42.704;23.384;2022-08-01T09:41:11;2.30;;;2.20;;
4616;SDS011;2321;42.704;23.384;2022-08-01T09:43:38;1.73;;;1.63;;
4616;SDS011;2321;42.704;23.384;2022-08-01T09:46:08;4.43;;;2.23;;
4616;SDS011;2321;42.704;23.384;2022-08-01T09:48:37;1.63;;;1.53;;
4616;SDS011;2321;42.704;23.384;2022-08-01T09:51:07;1.37;;;1.37;;
4616;SDS011;2321;42.704;23.384;2022-08-01T09:53:43;2.80;;;1.80;;
4616;SDS011;2321;42.704;23.384;2022-08-01T09:56:12;2.00;;;1.60;;
4616;SDS011;2321;42.704;23.384;2022-08-01T09:58:52;1.70;;;1.70;;
4616;SDS011;2321;42.704;23.384;2022-08-01T10:01:21;1.60;;;1.50;;
4616;SDS011;2321;42.704;23.384;2022-08-01T10:04:03;1.63;;;1.63;;
4616;SDS011;2321;42.704;23.384;2022-08-01T10:06:33;1.77;;;1.67;;
4616;SDS011;2321;42.704;23.384;2022-08-01T10:09:01;3.23;;;2.00;;
4616;SDS011;2321;42.704;23.384;2022-08-01T10:11:28;1.57;;;1.57;;
4616;SDS011;2321;42.704;23.384;2022-08-01T10:13:56;1.70;;;1.60;;
4616;SDS011;2321;42.704;23.384;2022-08-01T10:16:26;2.20;;;1.67;;
4616;SDS011;2321;42.704;23.384;2022-08-01T10:18:53;2.03;;;2.00;;
4616;SDS011;2321;42.704;23.384;2022-08-01T10:21:20;2.17;;;2.07;;
4616;SDS011;2321;42.704;23.384;2022-08-01T10:23:52;2.20;;;2.07;;
4616;SDS011;2321;42.704;23.384;2022-08-01T10:26:21;3.40;;;2.03;;
4616;SDS011;2321;42.704;23.384;2022-08-01T10:28:51;2.17;;;2.07;;
4616;SDS011;2321;42.704;23.384;2022-08-01T10:31:20;2.00;;;1.90;;
4616;SDS011;2321;42.704;23.384;2022-08-01T10:33:48;4.57;;;1.83;;
4616;SDS011;2321;42.704;23.384;2022-08-01T10:36:17;1.70;;;1.60;;
4616;SDS011;2321;42.704;23.384;2022-08-01T10:38:46;5.27;;;1.83;;
4616;SDS011;2321;42.704;23.384;2022-08-01T10:41:15;2.13;;;1.93;;
4616;SDS011;2321;42.704;23.384;2022-08-01T10:43:45;1.67;;;1.67;;
4616;SDS011;2321;42.704;23.384;2022-08-01T10:46:11;1.50;;;1.40;;
4616;SDS011;2321;42.704;23.384;2022-08-01T10:48:40;2.03;;;1.93;;
4616;SDS011;2321;42.704;23.384;2022-08-01T10:51:13;1.50;;;1.50;;
4616;SDS011;2321;42.704;23.384;2022-08-01T10:53:45;1.53;;;1.43;;
4616;SDS011;2321;42.704;23.384;2022-08-01T10:56:15;1.70;;;1.70;;
4616;SDS011;2321;42.704;23.384;2022-08-01T10:58:43;2.30;;;2.20;;
4616;SDS011;2321;42.704;23.384;2022-08-01T11:01:14;2.50;;;2.30;;
4616;SDS011;2321;42.704;23.384;2022-08-01T11:03:56;1.80;;;1.80;;
4616;SDS011;2321;42.704;23.384;2022-08-01T11:06:41;1.70;;;1.70;;
4616;SDS011;2321;42.704;23.384;2022-08-01T11:09:21;3.23;;;1.93;;
4616;SDS011;2321;42.704;23.384;2022-08-01T11:11:59;2.07;;;1.97;;
4616;SDS011;2321;42.704;23.384;2022-08-01T11:14:29;16.57;;;2.20;;
4616;SDS011;2321;42.704;23.384;2022-08-01T11:16:56;1.97;;;1.90;;
4616;SDS011;2321;42.704;23.384;2022-08-01T11:22:32;2.10;;;2.00;;
4616;SDS011;2321;42.704;23.384;2022-08-01T11:28:43;1.90;;;1.77;;
4616;SDS011;2321;42.704;23.384;2022-08-01T11:31:30;1.90;;;1.80;;
4616;SDS011;2321;42.704;23.384;2022-08-01T11:33:58;2.53;;;2.33;;
4616;SDS011;2321;42.704;23.384;2022-08-01T11:36:26;2.40;;;2.20;;
4616;SDS011;2321;42.704;23.384;2022-08-01T11:41:41;2.50;;;2.30;;
4616;SDS011;2321;42.704;23.384;2022-08-01T11:44:12;2.10;;;2.03;;
4616;SDS011;2321;42.704;23.384;2022-08-01T11:46:51;1.77;;;1.70;;
4616;SDS011;2321;42.704;23.384;2022-08-01T11:49:27;1.70;;;1.70;;
4616;SDS011;2321;42.704;23.384;2022-08-01T11:52:11;1.73;;;1.73;;
4616;SDS011;2321;42.704;23.384;2022-08-01T11:54:41;1.57;;;1.57;;
4616;SDS011;2321;42.704;23.384;2022-08-01T11:57:09;1.80;;;1.80;;
4616;SDS011;2321;42.704;23.384;2022-08-01T11:59:40;1.60;;;1.50;;
4616;SDS011;2321;42.704;23.384;2022-08-01T12:02:18;2.10;;;2.00;;
4616;SDS011;2321;42.704;23.384;2022-08-01T12:04:53;1.77;;;1.77;;
4616;SDS011;2321;42.704;23.384;2022-08-01T12:07:22;2.17;;;2.07;;
4616;SDS011;2321;42.704;23.384;2022-08-01T12:10:00;1.97;;;1.87;;
4616;SDS011;2321;42.704;23.384;2022-08-01T12:12:29;2.20;;;2.10;;
4616;SDS011;2321;42.704;23.384;2022-08-01T12:14:58;1.90;;;1.83;;
4616;SDS011;2321;42.704;23.384;2022-08-01T12:17:28;2.60;;;2.30;;
4616;SDS011;2321;42.704;23.384;2022-08-01T12:19:55;2.60;;;2.50;;
4616;SDS011;2321;42.704;23.384;2022-08-01T12:22:23;2.40;;;2.30;;
4616;SDS011;2321;42.704;23.384;2022-08-01T12:24:51;2.43;;;2.23;;
4616;SDS011;2321;42.704;23.384;2022-08-01T12:27:24;3.33;;;3.13;;
4616;SDS011;2321;42.704;23.384;2022-08-01T12:29:53;2.00;;;1.90;;
4616;SDS011;2321;42.704;23.384;2022-08-01T12:32:26;1.93;;;1.83;;
4616;SDS011;2321;42.704;23.384;2022-08-01T12:34:56;2.53;;;2.27;;
4616;SDS011;2321;42.704;23.384;2022-08-01T12:37:26;1.87;;;1.77;;
4616;SDS011;2321;42.704;23.384;2022-08-01T12:39:53;2.40;;;2.30;;
4616;SDS011;2321;42.704;23.384;2022-08-01T12:42:22;2.57;;;2.47;;
4616;SDS011;2321;42.704;23.384;2022-08-01T12:44:50;2.27;;;2.17;;
4616;SDS011;2321;42.704;23.384;2022-08-01T12:47:18;2.33;;;2.00;;
4616;SDS011;2321;42.704;23.384;2022-08-01T12:49:47;1.80;;;1.70;;
4616;SDS011;2321;42.704;23.384;2022-08-01T12:52:15;2.27;;;2.17;;
4616;SDS011;2321;42.704;23.384;2022-08-01T12:55:03;2.50;;;2.20;;
4616;SDS011;2321;42.704;23.384;2022-08-01T12:57:35;2.63;;;2.53;;
4616;SDS011;2321;42.704;23.384;2022-08-01T13:00:12;2.20;;;2.10;;
4616;SDS011;2321;42.704;23.384;2022-08-01T13:02:42;1.80;;;1.80;;
4616;SDS011;2321;42.704;23.384;2022-08-01T13:05:11;2.20;;;2.10;;
4616;SDS011;2321;42.704;23.384;2022-08-01T13:07:40;1.63;;;1.63;;
4616;SDS011;2321;42.704;23.384;2022-08-01T13:10:09;2.00;;;2.00;;
4616;SDS011;2321;42.704;23.384;2022-08-01T13:12:37;2.43;;;2.33;;
4616;SDS011;2321;42.704;23.384;2022-08-01T13:15:18;2.00;;;2.00;;
4616;SDS011;2321;42.704;23.384;2022-08-01T13:17:47;1.63;;;1.63;;
4616;SDS011;2321;42.704;23.384;2022-08-01T13:20:28;2.17;;;2.07;;
4616;SDS011;2321;42.704;23.384;2022-08-01T13:23:09;1.60;;;1.60;;
4616;SDS011;2321;42.704;23.384;2022-08-01T13:25:47;2.10;;;2.00;;
4616;SDS011;2321;42.704;23.384;2022-08-01T13:28:16;1.73;;;1.63;;
4616;SDS011;2321;42.704;23.384;2022-08-01T13:30:55;2.13;;;2.07;;
4616;SDS011;2321;42.704;23.384;2022-08-01T13:33:26;2.27;;;2.10;;
4616;SDS011;2321;42.704;23.384;2022-08-01T13:35:56;2.90;;;2.70;;
4616;SDS011;2321;42.704;23.384;2022-08-01T13:38:23;2.10;;;2.00;;
4616;SDS011;2321;42.704;23.384;2022-08-01T13:41:03;1.73;;;1.63;;
4616;SDS011;2321;42.704;23.384;2022-08-01T13:43:31;2.10;;;2.07;;
4616;SDS011;2321;42.704;23.384;2022-08-01T13:45:58;2.13;;;2.03;;
4616;SDS011;2321;42.704;23.384;2022-08-01T13:48:25;2.40;;;2.20;;
4616;SDS011;2321;42.704;23.384;2022-08-01T13:50:52;4.43;;;2.10;;
4616;SDS011;2321;42.704;23.384;2022-08-01T13:53:20;1.93;;;1.80;;
4616;SDS011;2321;42.704;23.384;2022-08-01T13:55:47;1.40;;;1.40;;
4616;SDS011;2321;42.704;23.384;2022-08-01T13:58:15;2.10;;;2.00;;
4616;SDS011;2321;42.704;23.384;2022-08-01T14:00:42;1.90;;;1.80;;
4616;SDS011;2321;42.704;23.384;2022-08-01T14:03:09;2.07;;;1.97;;
4616;SDS011;2321;42.704;23.384;2022-08-01T14:05:36;1.50;;;1.50;;
4616;SDS011;2321;42.704;23.384;2022-08-01T14:08:05;2.07;;;1.97;;
4616;SDS011;2321;42.704;23.384;2022-08-01T14:10:34;2.07;;;1.97;;
4616;SDS011;2321;42.704;23.384;2022-08-01T14:13:01;2.40;;;2.17;;
4616;SDS011;2321;42.704;23.384;2022-08-01T14:15:28;2.17;;;1.70;;
4616;SDS011;2321;42.704;23.384;2022-08-01T14:17:56;1.60;;;1.57;;
4616;SDS011;2321;42.704;23.384;2022-08-01T14:20:24;1.63;;;1.60;;
4616;SDS011;2321;42.704;23.384;2022-08-01T14:22:51;1.80;;;1.80;;
4616;SDS011;2321;42.704;23.384;2022-08-01T14:25:18;2.60;;;1.77;;
4616;SDS011;2321;42.704;23.384;2022-08-01T14:27:46;1.70;;;1.70;;
4616;SDS011;2321;42.704;23.384;2022-08-01T14:30:13;2.17;;;2.10;;
4616;SDS011;2321;42.704;23.384;2022-08-01T14:32:40;1.50;;;1.50;;
4616;SDS011;2321;42.704;23.384;2022-08-01T14:35:07;1.90;;;1.80;;
4616;SDS011;2321;42.704;23.384;2022-08-01T14:37:35;1.93;;;1.90;;
4616;SDS011;2321;42.704;23.384;2022-08-01T14:40:02;1.73;;;1.73;;
4616;SDS011;2321;42.704;23.384;2022-08-01T14:42:32;1.43;;;1.43;;
4616;SDS011;2321;42.704;23.384;2022-08-01T14:45:01;1.93;;;1.83;;
4616;SDS011;2321;42.704;23.384;2022-08-01T14:47:33;1.40;;;1.40;;
4616;SDS011;2321;42.704;23.384;2022-08-01T14:50:01;2.00;;;2.00;;
4616;SDS011;2321;42.704;23.384;2022-08-01T14:52:29;2.07;;;1.97;;
4616;SDS011;2321;42.704;23.384;2022-08-01T14:54:56;1.97;;;1.87;;
4616;SDS011;2321;42.704;23.384;2022-08-01T14:57:23;3.27;;;1.40;;
4616;SDS011;2321;42.704;23.384;2022-08-01T14:59:50;2.93;;;1.87;;
4616;SDS011;2321;42.704;23.384;2022-08-01T15:02:18;1.67;;;1.63;;
4616;SDS011;2321;42.704;23.384;2022-08-01T15:04:45;1.50;;;1.40;;
4616;SDS011;2321;42.704;23.384;2022-08-01T15:07:13;1.80;;;1.80;;
4616;SDS011;2321;42.704;23.384;2022-08-01T15:09:41;2.07;;;2.03;;
4616;SDS011;2321;42.704;23.384;2022-08-01T15:12:08;1.80;;;1.70;;
4616;SDS011;2321;42.704;23.384;2022-08-01T15:14:36;2.00;;;1.87;;
4616;SDS011;2321;42.704;23.384;2022-08-01T15:17:16;1.80;;;1.80;;
4616;SDS011;2321;42.704;23.384;2022-08-01T15:19:45;2.00;;;2.00;;
4616;SDS011;2321;42.704;23.384;2022-08-01T15:22:12;1.83;;;1.73;;
4616;SDS011;2321;42.704;23.384;2022-08-01T15:24:39;2.10;;;1.77;;